createdAt,value
2023-04-28T00:02:36.533Z,99917.81
2023-04-28T00:05:38.589Z,99916.82
2023-04-28T00:08:41.440Z,99912.41
2023-04-28T00:11:45.349Z,99918.04
2023-04-28T00:14:47.079Z,99919.94
2023-04-28T00:17:48.833Z,99921.99
2023-04-28T00:20:50.734Z,99918.44
2023-04-28T00:23:52.497Z,99917.08
2023-04-28T00:26:54.141Z,99917.27
2023-04-28T00:29:55.907Z,99914.23
2023-04-28T00:32:57.977Z,99913.73
2023-04-28T00:36:03.072Z,99920.55
2023-04-28T00:39:04.736Z,99915.98
2023-04-28T00:42:06.378Z,99917.36
2023-04-28T00:45:08.564Z,99914.98
2023-04-28T00:48:10.274Z,99914.81
2023-04-28T00:51:11.783Z,99921.63
2023-04-28T00:54:14.660Z,99912.11
2023-04-28T00:57:16.606Z,99911.95
2023-04-28T01:00:18.317Z,99910.94
2023-04-28T01:03:19.968Z,99912.13
2023-04-28T01:06:22.766Z,99913.65
2023-04-28T01:09:24.430Z,99915.70
2023-04-28T01:12:26.073Z,99916.04
2023-04-28T01:15:27.937Z,99917.08
2023-04-28T01:18:31.512Z,99917.07
2023-04-28T01:21:33.845Z,99913.69
2023-04-28T01:24:35.603Z,99910.45
2023-04-28T01:27:37.144Z,99908.75
2023-04-28T01:30:38.972Z,99906.71
2023-04-28T01:33:40.882Z,99906.02
2023-04-28T01:36:42.701Z,99908.07
2023-04-28T01:39:44.291Z,99906.54
2023-04-28T01:42:45.981Z,99907.91
2023-04-28T01:45:48.089Z,99909.63
2023-04-28T01:48:49.650Z,99914.73
2023-04-28T01:51:51.383Z,99916.42
2023-04-28T01:54:53.058Z,99919.14
2023-04-28T01:57:54.694Z,99919.83
2023-04-28T02:00:56.767Z,99918.30
2023-04-28T02:03:58.631Z,99922.89
2023-04-28T02:07:00.452Z,99922.55
2023-04-28T02:10:02.118Z,99921.36
2023-04-28T02:13:03.704Z,99922.89
2023-04-28T02:16:05.702Z,99924.42
2023-04-28T02:19:07.495Z,99918.63
2023-04-28T02:22:09.058Z,99920.49
2023-04-28T02:25:10.823Z,99927.13
2023-04-28T02:28:12.468Z,99922.36
2023-04-28T02:31:14.307Z,99919.98
2023-04-28T02:34:16.253Z,99923.53
2023-04-28T02:37:18.277Z,99923.88
2023-04-28T02:40:19.769Z,99920.47
2023-04-28T02:43:21.602Z,99917.74
2023-04-28T02:46:23.226Z,99923.37
2023-04-28T02:49:24.869Z,99922.17
2023-04-28T02:52:26.561Z,99919.95
2023-04-28T02:55:28.184Z,99921.83
2023-04-28T02:58:29.907Z,99923.36
2023-04-28T03:01:31.787Z,99922.34
2023-04-28T03:04:33.505Z,99926.59
2023-04-28T03:07:35.512Z,99926.41
2023-04-28T03:10:37.150Z,99924.02
2023-04-28T03:13:39.135Z,99920.95
2023-04-28T03:16:40.922Z,99916.70
2023-04-28T03:19:42.393Z,99921.48
2023-04-28T03:22:44.211Z,99915.52
2023-04-28T03:25:45.770Z,99917.23
2023-04-28T03:28:47.354Z,99920.48
2023-04-28T03:31:49.197Z,99925.42
2023-04-28T03:34:50.976Z,99927.12
2023-04-28T03:37:52.897Z,99922.50
2023-04-28T03:40:54.568Z,99923.36
2023-04-28T03:43:56.254Z,99922.88
2023-04-28T03:46:57.896Z,99927.80
2023-04-28T03:49:59.531Z,99921.16
2023-04-28T03:53:01.075Z,99926.27
2023-04-28T03:56:02.764Z,99931.38
2023-04-28T03:59:04.417Z,99935.14
2023-04-28T04:02:06.150Z,99932.41
2023-04-28T04:05:08.050Z,99939.56
2023-04-28T04:08:09.788Z,99940.27
2023-04-28T04:11:11.489Z,99938.23
2023-04-28T04:14:13.185Z,99936.35
2023-04-28T04:17:14.827Z,99940.95
2023-04-28T04:20:16.477Z,99942.81
2023-04-28T04:23:18.120Z,99941.97
2023-04-28T04:26:19.932Z,99940.44
2023-04-28T04:29:21.559Z,99943.84
2023-04-28T04:32:23.357Z,99939.91
2023-04-28T04:35:24.939Z,99937.86
2023-04-28T04:38:26.853Z,99936.33
2023-04-28T04:41:28.717Z,99935.95
2023-04-28T04:44:30.547Z,99932.52
2023-04-28T04:47:32.149Z,99932.96
2023-04-28T04:50:33.889Z,99931.16
2023-04-28T04:53:35.413Z,99926.05
2023-04-28T04:56:37.176Z,99927.54
2023-04-28T04:59:38.844Z,99925.47
2023-04-28T05:02:40.593Z,99929.27
2023-04-28T05:05:43.214Z,99926.61
2023-04-28T05:08:46.422Z,99920.65
2023-04-28T05:11:48.048Z,99918.45
2023-04-28T05:14:49.849Z,99923.20
2023-04-28T05:17:51.535Z,99923.04
2023-04-28T05:20:53.298Z,99924.03
2023-04-28T05:23:54.875Z,99922.44
2023-04-28T05:26:58.865Z,99919.04
2023-04-28T05:30:00.485Z,99923.04
2023-04-28T05:33:02.094Z,99926.80
2023-04-28T05:36:04.039Z,99926.48
2023-04-28T05:39:05.769Z,99927.92
2023-04-28T05:42:07.436Z,99927.33
2023-04-28T05:45:10.243Z,99928.89
2023-04-28T05:48:12.115Z,99933.83
2023-04-28T05:51:13.887Z,99930.34
2023-04-28T05:54:15.793Z,99937.20
2023-04-28T05:57:17.713Z,99934.31
2023-04-28T06:00:19.711Z,99933.84
2023-04-28T06:03:21.752Z,99934.69
2023-04-28T06:06:23.613Z,99935.67
2023-04-28T06:09:25.340Z,99936.63
2023-04-28T06:12:27.138Z,99941.28
2023-04-28T06:15:28.923Z,99940.40
2023-04-28T06:18:30.869Z,99939.30
2023-04-28T06:21:32.573Z,99940.66
2023-04-28T06:24:34.205Z,99939.98
2023-04-28T06:27:35.919Z,99937.91
2023-04-28T06:30:37.675Z,99936.14
2023-04-28T06:33:39.295Z,99931.76
2023-04-28T06:36:41.062Z,99929.70
2023-04-28T06:39:42.754Z,99927.98
2023-04-28T06:42:44.351Z,99925.73
2023-04-28T06:45:46.156Z,99927.34
2023-04-28T06:48:47.794Z,99926.79
2023-04-28T06:51:49.402Z,99930.20
2023-04-28T06:54:51.008Z,99928.58
2023-04-28T06:57:52.617Z,99928.41
2023-04-28T07:00:54.393Z,99927.45
2023-04-28T07:03:56.238Z,99923.64
2023-04-28T07:06:58.280Z,99923.88
2023-04-28T07:10:00.666Z,99917.00
2023-04-28T07:13:02.449Z,99911.71
2023-04-28T07:16:04.460Z,99907.64
2023-04-28T07:19:06.292Z,99907.41
2023-04-28T07:22:07.894Z,99905.95
2023-04-28T07:25:09.812Z,99907.42
2023-04-28T07:28:11.484Z,99904.23
2023-04-28T07:31:13.170Z,99900.77
2023-04-28T07:34:15.070Z,99897.99
2023-04-28T07:37:17.330Z,99896.06
2023-04-28T07:40:19.558Z,99893.00
2023-04-28T07:43:21.319Z,99891.30
2023-04-28T07:46:23.115Z,99888.56
2023-04-28T07:49:24.874Z,99887.73
2023-04-28T07:52:26.499Z,99881.84
2023-04-28T07:55:28.201Z,99879.20
2023-04-28T07:58:29.891Z,99879.61
2023-04-28T08:01:31.492Z,99882.77
2023-04-28T08:04:33.243Z,99879.83
2023-04-28T08:07:35.817Z,99874.06
2023-04-28T08:10:37.400Z,99873.97
2023-04-28T08:13:39.056Z,99866.27
2023-04-28T08:16:40.713Z,99870.88
2023-04-28T08:19:42.433Z,99865.88
2023-04-28T08:22:44.039Z,99857.05
2023-04-28T08:25:46.146Z,99856.34
2023-04-28T08:28:47.799Z,99855.27
2023-04-28T08:31:49.507Z,99853.42
2023-04-28T08:34:51.269Z,99848.87
2023-04-28T08:37:53.352Z,99847.27
2023-04-28T08:40:54.963Z,99844.53
2023-04-28T08:43:56.545Z,99843.19
2023-04-28T08:47:00.026Z,99842.04
2023-04-28T08:50:06.564Z,99840.09
2023-04-28T08:53:08.651Z,99839.05
2023-04-28T08:56:10.618Z,99837.00
2023-04-28T08:59:12.878Z,99834.36
2023-04-28T09:02:14.858Z,99832.59
2023-04-28T09:05:16.926Z,99826.41
2023-04-28T09:08:19.023Z,99825.98
2023-04-28T09:11:20.633Z,99823.04
2023-04-28T09:14:23.332Z,99824.23
2023-04-28T09:17:25.104Z,99821.20
2023-04-28T09:20:28.180Z,99820.83
2023-04-28T09:23:30.035Z,99816.01
2023-04-28T09:26:48.935Z,99808.27
2023-04-28T09:29:54.355Z,99808.45
2023-04-28T09:33:05.427Z,99805.67
2023-04-28T09:36:07.980Z,99807.55
2023-04-28T09:39:09.682Z,99805.10
2023-04-28T09:42:11.348Z,99798.80
2023-04-28T09:45:15.052Z,99793.38
2023-04-28T09:48:16.759Z,99791.11
2023-04-28T09:51:20.949Z,99787.94
2023-04-28T09:54:22.668Z,99787.11
2023-04-28T09:57:24.399Z,99786.95
2023-04-28T10:00:26.305Z,99788.94
2023-04-28T10:03:31.354Z,99783.73
2023-04-28T10:06:36.450Z,99782.80
2023-04-28T10:09:38.868Z,99773.15
2023-04-28T10:12:40.653Z,99767.61
2023-04-28T10:15:43.598Z,99768.52
2023-04-28T10:18:45.829Z,99766.42
2023-04-28T10:21:57.268Z,99760.40
2023-04-28T10:25:26.520Z,99758.25
2023-04-28T10:28:28.840Z,99757.11
2023-04-28T10:31:30.415Z,99755.09
2023-04-28T10:34:35.024Z,99748.95
2023-04-28T10:38:12.123Z,99748.29
2023-04-28T10:41:32.126Z,99744.14
2023-04-28T10:44:33.740Z,99740.63
2023-04-28T10:48:01.652Z,99736.05
2023-04-28T10:51:03.407Z,99731.05
2023-04-28T10:54:08.387Z,99726.98
2023-04-28T10:57:20.017Z,99720.27
2023-04-28T11:00:29.473Z,99718.28
2023-04-28T11:03:49.522Z,99715.07
2023-04-28T11:07:11.200Z,99715.59
2023-04-28T11:10:13.010Z,99711.25
2023-04-28T11:13:30.308Z,99707.30
2023-04-28T11:16:32.192Z,99702.84
2023-04-28T11:19:36.478Z,99700.80
2023-04-28T11:22:38.335Z,99699.86
2023-04-28T11:25:58.397Z,99692.15
2023-04-28T11:29:00.050Z,99687.89
2023-04-28T11:32:02.938Z,99682.61
2023-04-28T11:35:05.117Z,99681.79
2023-04-28T11:38:06.698Z,99675.02
2023-04-28T11:41:08.346Z,99677.45
2023-04-28T11:44:18.161Z,99677.85
2023-04-28T11:47:30.809Z,99679.30
2023-04-28T11:50:36.535Z,99674.81
2023-04-28T11:53:43.358Z,99668.61
2023-04-28T11:56:44.991Z,99667.56
2023-04-28T11:59:46.996Z,99660.63
2023-04-28T12:02:49.466Z,99655.38
2023-04-28T12:05:51.329Z,99651.98
2023-04-28T12:08:54.254Z,99643.41
2023-04-28T12:12:01.063Z,99633.72
2023-04-28T12:15:04.662Z,99633.11
2023-04-28T12:18:10.692Z,99631.07
2023-04-28T12:21:21.099Z,99624.55
2023-04-28T12:24:22.815Z,99624.80
2023-04-28T12:27:24.443Z,99624.52
2023-04-28T12:30:31.689Z,99618.62
2023-04-28T12:33:33.286Z,99615.38
2023-04-28T12:36:34.947Z,99613.21
2023-04-28T12:39:39.539Z,99607.79
2023-04-28T12:42:41.605Z,99600.66
2023-04-28T12:45:43.298Z,99593.23
2023-04-28T12:48:45.076Z,99589.25
2023-04-28T12:51:46.771Z,99589.09
2023-04-28T12:54:49.121Z,99581.81
2023-04-28T12:57:50.721Z,99578.77
2023-04-28T13:00:52.375Z,99573.80
2023-04-28T13:03:54.184Z,99571.16
2023-04-28T13:06:56.228Z,99566.02
2023-04-28T13:09:57.930Z,99566.21
2023-04-28T13:12:59.548Z,99565.33
2023-04-28T13:16:01.298Z,99562.95
2023-04-28T13:19:04.163Z,99561.48
2023-04-28T13:22:05.939Z,99555.92
2023-04-28T13:25:08.240Z,99554.15
2023-04-28T13:28:09.946Z,99548.33
2023-04-28T13:31:11.765Z,99548.07
2023-04-28T13:34:13.590Z,99545.38
2023-04-28T13:37:15.237Z,99544.30
2023-04-28T13:40:16.904Z,99546.25
2023-04-28T13:43:18.670Z,99534.17
2023-04-28T13:46:21.170Z,99530.98
2023-04-28T13:49:22.986Z,99524.92
2023-04-28T13:52:24.578Z,99520.77
2023-04-28T13:55:26.210Z,99516.36
2023-04-28T13:58:28.485Z,99516.38
2023-04-28T14:01:30.333Z,99510.92
2023-04-28T14:04:32.238Z,99502.97
2023-04-28T14:07:34.154Z,99500.16
2023-04-28T14:10:36.181Z,99497.23
2023-04-28T14:13:38.079Z,99491.80
2023-04-28T14:16:39.753Z,99489.17
2023-04-28T14:19:41.360Z,99479.89
2023-04-28T14:22:42.962Z,99477.48
2023-04-28T14:25:44.604Z,99471.52
2023-04-28T14:28:46.292Z,99466.44
2023-04-28T14:31:47.888Z,99465.58
2023-04-28T14:34:50.345Z,99466.33
2023-04-28T14:37:52.829Z,99465.79
2023-04-28T14:40:54.451Z,99466.34
2023-04-28T14:43:56.136Z,99469.29
2023-04-28T14:46:57.840Z,99465.09
2023-04-28T14:50:00.072Z,99461.96
2023-04-28T14:53:02.049Z,99462.52
2023-04-28T14:56:17.417Z,99460.48
2023-04-28T14:59:20.622Z,99459.23
2023-04-28T15:02:22.344Z,99453.48
2023-04-28T15:05:24.072Z,99450.54
2023-04-28T15:08:26.911Z,99450.44
2023-04-28T15:11:30.025Z,99450.17
2023-04-28T15:14:31.877Z,99448.48
2023-04-28T15:17:33.494Z,99446.23
2023-04-28T15:20:35.393Z,99443.81
2023-04-28T15:23:37.756Z,99438.86
2023-04-28T15:26:39.366Z,99432.84
2023-04-28T15:29:41.105Z,99431.73
2023-04-28T15:32:43.588Z,99433.55
2023-04-28T15:35:45.349Z,99431.48
2023-04-28T15:38:50.651Z,99428.17
2023-04-28T15:41:52.718Z,99431.81
2023-04-28T15:44:54.532Z,99426.84
2023-04-28T15:47:56.270Z,99428.83
2023-04-28T15:50:57.924Z,99429.30
2023-04-28T15:53:59.674Z,99430.69
2023-04-28T15:57:01.395Z,99428.59
2023-04-28T16:00:03.190Z,99427.64
2023-04-28T16:03:05.200Z,99425.06
2023-04-28T16:06:07.174Z,99427.51
2023-04-28T16:09:08.977Z,99419.31
2023-04-28T16:12:10.737Z,99411.39
2023-04-28T16:15:13.220Z,99407.31
2023-04-28T16:18:16.036Z,99407.63
2023-04-28T16:21:17.741Z,99404.94
2023-04-28T16:24:19.448Z,99403.75
2023-04-28T16:27:21.401Z,99405.97
2023-04-28T16:30:23.108Z,99406.70
2023-04-28T16:33:24.765Z,99403.71
2023-04-28T16:36:30.629Z,99393.85
2023-04-28T16:39:32.507Z,99388.12
2023-04-28T16:42:34.885Z,99386.48
2023-04-28T16:45:36.605Z,99382.92
2023-04-28T16:48:38.356Z,99384.95
2023-04-28T16:51:40.010Z,99383.95
2023-04-28T16:54:41.618Z,99378.73
2023-04-28T16:57:43.206Z,99383.95
2023-04-28T17:00:44.835Z,99382.87
2023-04-28T17:03:46.750Z,99381.89
2023-04-28T17:06:48.693Z,99376.43
2023-04-28T17:09:50.457Z,99366.85
2023-04-28T17:12:52.376Z,99367.34
2023-04-28T17:15:55.563Z,99377.79
2023-04-28T17:18:57.248Z,99373.61
2023-04-28T17:21:59.048Z,99365.64
2023-04-28T17:25:01.074Z,99356.52
2023-04-28T17:28:02.739Z,99359.22
2023-04-28T17:31:04.885Z,99360.11
2023-04-28T17:34:06.627Z,99361.61
2023-04-28T17:37:08.333Z,99365.84
2023-04-28T17:40:10.514Z,99365.99
2023-04-28T17:43:12.676Z,99369.67
2023-04-28T17:46:14.415Z,99369.23
2023-04-28T17:49:16.117Z,99363.59
2023-04-28T17:52:17.745Z,99362.27
2023-04-28T17:55:19.442Z,99359.77
2023-04-28T17:58:21.192Z,99356.10
2023-04-28T18:01:22.962Z,99350.30
2023-04-28T18:04:24.864Z,99347.89
2023-04-28T18:07:26.502Z,99348.67
2023-04-28T18:10:29.200Z,99350.30
2023-04-28T18:13:30.928Z,99345.63
2023-04-28T18:16:32.629Z,99349.36
2023-04-28T18:19:34.275Z,99347.56
2023-04-28T18:22:35.939Z,99347.73
2023-04-28T18:25:37.833Z,99351.06
2023-04-28T18:28:39.504Z,99349.91
2023-04-28T18:31:41.304Z,99352.49
2023-04-28T18:34:43.423Z,99351.95
2023-04-28T18:37:45.853Z,99353.21
2023-04-28T18:40:47.437Z,99357.33
2023-04-28T18:43:49.162Z,99354.21
2023-04-28T18:46:50.944Z,99356.71
2023-04-28T18:49:52.599Z,99354.13
2023-04-28T18:52:54.477Z,99355.54
2023-04-28T18:55:56.589Z,99355.67
2023-04-28T18:58:58.382Z,99358.64
2023-04-28T19:02:02.163Z,99360.55
2023-04-28T19:05:04.509Z,99359.41
2023-04-28T19:08:10.135Z,99356.07
2023-04-28T19:11:13.372Z,99352.39
2023-04-28T19:14:14.997Z,99352.80
2023-04-28T19:17:16.631Z,99350.55
2023-04-28T19:20:18.584Z,99356.43
2023-04-28T19:23:20.168Z,99353.98
2023-04-28T19:26:22.039Z,99353.52
2023-04-28T19:29:23.680Z,99350.27
2023-04-28T19:32:25.506Z,99349.10
2023-04-28T19:35:27.296Z,99350.67
2023-04-28T19:38:28.937Z,99346.58
2023-04-28T19:41:30.660Z,99341.70
2023-04-28T19:44:32.277Z,99346.94
2023-04-28T19:47:34.168Z,99348.69
2023-04-28T19:50:36.361Z,99343.92
2023-04-28T19:53:37.960Z,99345.27
2023-04-28T19:56:39.731Z,99341.05
2023-04-28T19:59:41.331Z,99337.92
2023-04-28T20:02:43.037Z,99336.85
2023-04-28T20:05:44.863Z,99334.20
2023-04-28T20:08:46.507Z,99330.33
2023-04-28T20:11:48.288Z,99329.27
2023-04-28T20:14:50.048Z,99327.50
2023-04-28T20:17:51.761Z,99326.45
2023-04-28T20:20:53.552Z,99328.21
2023-04-28T20:23:55.333Z,99331.45
2023-04-28T20:26:57.265Z,99332.02
2023-04-28T20:29:58.897Z,99329.90
2023-04-28T20:33:00.642Z,99327.81
2023-04-28T20:36:02.652Z,99329.89
2023-04-28T20:39:04.568Z,99327.59
2023-04-28T20:42:06.347Z,99325.56
2023-04-28T20:45:08.393Z,99323.40
2023-04-28T20:48:10.132Z,99325.77
2023-04-28T20:51:11.733Z,99324.05
2023-04-28T20:54:13.331Z,99316.65
2023-04-28T20:57:14.998Z,99314.25
2023-04-28T21:00:16.578Z,99313.73
2023-04-28T21:03:18.490Z,99313.64
2023-04-28T21:06:20.253Z,99308.41
2023-04-28T21:09:21.781Z,99305.96
2023-04-28T21:12:23.600Z,99307.38
2023-04-28T21:15:25.258Z,99306.44
2023-04-28T21:18:27.107Z,99307.56
2023-04-28T21:21:28.700Z,99307.73
2023-04-28T21:24:30.474Z,99310.17
2023-04-28T21:27:32.127Z,99309.21
2023-04-28T21:30:33.716Z,99313.73
2023-04-28T21:33:35.647Z,99316.02
2023-04-28T21:36:37.473Z,99312.34
2023-04-28T21:39:39.200Z,99315.69
2023-04-28T21:42:40.863Z,99317.32
2023-04-28T21:45:42.492Z,99315.53
2023-04-28T21:48:44.175Z,99314.48
2023-04-28T21:51:45.878Z,99310.02
2023-04-28T21:54:47.716Z,99310.16
2023-04-28T21:57:49.489Z,99308.55
2023-04-28T22:00:51.136Z,99305.27
2023-04-28T22:03:53.673Z,99305.56
2023-04-28T22:06:56.029Z,99302.62
2023-04-28T22:09:57.739Z,99300.49
2023-04-28T22:12:59.539Z,99299.94
2023-04-28T22:16:01.160Z,99296.29
2023-04-28T22:19:02.845Z,99297.55
2023-04-28T22:22:04.500Z,99297.86
2023-04-28T22:25:06.572Z,99295.63
2023-04-28T22:28:08.419Z,99296.09
2023-04-28T22:31:09.985Z,99296.06
2023-04-28T22:34:11.739Z,99294.50
2023-04-28T22:37:13.478Z,99294.54
2023-04-28T22:40:14.982Z,99297.14
2023-04-28T22:43:16.759Z,99294.27
2023-04-28T22:46:18.412Z,99294.13
2023-04-28T22:49:20.214Z,99294.35
2023-04-28T22:52:21.827Z,99292.55
2023-04-28T22:55:23.466Z,99290.91
2023-04-28T22:58:24.972Z,99293.60
2023-04-28T23:01:26.606Z,99292.16
2023-04-28T23:04:29.236Z,99291.20
2023-04-28T23:07:31.147Z,99292.27
2023-04-28T23:10:32.756Z,99289.55
2023-04-28T23:13:34.469Z,99294.02
2023-04-28T23:16:36.322Z,99291.79
2023-04-28T23:19:38.203Z,99288.84
2023-04-28T23:22:39.732Z,99278.14
2023-04-28T23:25:41.906Z,99280.66
2023-04-28T23:28:43.494Z,99279.42
2023-04-28T23:31:45.272Z,99281.23
2023-04-28T23:34:46.863Z,99277.80
2023-04-28T23:37:48.638Z,99272.83
2023-04-28T23:40:50.331Z,99269.97
2023-04-28T23:43:51.970Z,99272.23
2023-04-28T23:46:55.868Z,99272.49
2023-04-28T23:49:57.937Z,99265.45
2023-04-28T23:52:59.522Z,99263.48
2023-04-28T23:56:01.145Z,99260.48
2023-04-28T23:59:02.675Z,99260.40
